sensor_id;sensor_type;location;lat;lon;timestamp;P1;P2;P0
61592;PMS5003;47485;51.378;-1.342;2023-05-02T00:00:27;8;8;
61592;PMS5003;47485;51.378;-1.342;2023-05-02T00:02:54;9;8;
61592;PMS5003;47485;51.378;-1.342;2023-05-02T00:05:21;7;7;
61592;PMS5003;47485;51.378;-1.342;2023-05-02T00:07:48;8;8;
61592;PMS5003;47485;51.378;-1.342;2023-05-02T00:10:15;10;10;
61592;PMS5003;47485;51.378;-1.342;2023-05-02T00:12:43;9;8;
61592;PMS5003;47485;51.378;-1.342;2023-05-02T00:15:10;8;7;
61592;PMS5003;47485;51.378;-1.342;2023-05-02T00:17:38;8;6;
61592;PMS5003;47485;51.378;-1.342;2023-05-02T00:20:06;9;8;
61592;PMS5003;47485;51.378;-1.342;2023-05-02T00:22:34;9;9;
61592;PMS5003;47485;51.378;-1.342;2023-05-02T00:25:01;10;10;
61592;PMS5003;47485;51.378;-1.342;2023-05-02T00:27:28;10;8;
61592;PMS5003;47485;51.378;-1.342;2023-05-02T00:29:55;8;8;
61592;PMS5003;47485;51.378;-1.342;2023-05-02T00:32:22;10;8;
61592;PMS5003;47485;51.378;-1.342;2023-05-02T00:34:48;11;9;
61592;PMS5003;47485;51.378;-1.342;2023-05-02T00:37:15;9;9;
61592;PMS5003;47485;51.378;-1.342;2023-05-02T00:39:42;8;8;
61592;PMS5003;47485;51.378;-1.342;2023-05-02T00:42:09;8;7;
61592;PMS5003;47485;51.378;-1.342;2023-05-02T00:44:36;10;10;
61592;PMS5003;47485;51.378;-1.342;2023-05-02T00:47:03;9;7;
61592;PMS5003;47485;51.378;-1.342;2023-05-02T00:49:30;7;6;
61592;PMS5003;47485;51.378;-1.342;2023-05-02T00:51:57;9;7;
61592;PMS5003;47485;51.378;-1.342;2023-05-02T00:54:24;8;7;
61592;PMS5003;47485;51.378;-1.342;2023-05-02T00:56:51;7;7;
61592;PMS5003;47485;51.378;-1.342;2023-05-02T00:59:17;7;6;
61592;PMS5003;47485;51.378;-1.342;2023-05-02T01:01:49;10;8;
61592;PMS5003;47485;51.378;-1.342;2023-05-02T01:04:27;6;4;
61592;PMS5003;47485;51.378;-1.342;2023-05-02T01:07:09;7;7;
61592;PMS5003;47485;51.378;-1.342;2023-05-02T01:09:51;7;7;
61592;PMS5003;47485;51.378;-1.342;2023-05-02T01:12:26;8;8;
61592;PMS5003;47485;51.378;-1.342;2023-05-02T01:15:04;7;7;
61592;PMS5003;47485;51.378;-1.342;2023-05-02T01:17:34;6;6;
61592;PMS5003;47485;51.378;-1.342;2023-05-02T01:20:04;7;7;
61592;PMS5003;47485;51.378;-1.342;2023-05-02T01:22:35;8;6;
61592;PMS5003;47485;51.378;-1.342;2023-05-02T01:25:07;9;7;
61592;PMS5003;47485;51.378;-1.342;2023-05-02T01:27:46;11;8;
61592;PMS5003;47485;51.378;-1.342;2023-05-02T01:30:27;7;7;
61592;PMS5003;47485;51.378;-1.342;2023-05-02T01:32:56;9;6;
61592;PMS5003;47485;51.378;-1.342;2023-05-02T01:35:25;6;5;
61592;PMS5003;47485;51.378;-1.342;2023-05-02T01:37:53;9;8;
61592;PMS5003;47485;51.378;-1.342;2023-05-02T01:40:22;9;7;
61592;PMS5003;47485;51.378;-1.342;2023-05-02T01:42:51;9;9;
61592;PMS5003;47485;51.378;-1.342;2023-05-02T01:45:20;8;7;
61592;PMS5003;47485;51.378;-1.342;2023-05-02T01:47:49;10;9;
61592;PMS5003;47485;51.378;-1.342;2023-05-02T01:50:18;12;9;
61592;PMS5003;47485;51.378;-1.342;2023-05-02T01:52:50;11;9;
61592;PMS5003;47485;51.378;-1.342;2023-05-02T01:55:18;11;10;
61592;PMS5003;47485;51.378;-1.342;2023-05-02T01:57:45;9;9;
61592;PMS5003;47485;51.378;-1.342;2023-05-02T02:00:14;11;11;
61592;PMS5003;47485;51.378;-1.342;2023-05-02T02:02:42;13;13;
61592;PMS5003;47485;51.378;-1.342;2023-05-02T02:05:11;14;13;
61592;PMS5003;47485;51.378;-1.342;2023-05-02T02:07:39;11;11;
61592;PMS5003;47485;51.378;-1.342;2023-05-02T02:10:05;17;15;
61592;PMS5003;47485;51.378;-1.342;2023-05-02T02:12:34;10;8;
61592;PMS5003;47485;51.378;-1.342;2023-05-02T02:15:08;12;10;
61592;PMS5003;47485;51.378;-1.342;2023-05-02T02:17:45;13;12;
61592;PMS5003;47485;51.378;-1.342;2023-05-02T02:20:14;16;14;
61592;PMS5003;47485;51.378;-1.342;2023-05-02T02:22:42;13;12;
61592;PMS5003;47485;51.378;-1.342;2023-05-02T02:25:11;13;13;
61592;PMS5003;47485;51.378;-1.342;2023-05-02T02:27:40;14;13;
61592;PMS5003;47485;51.378;-1.342;2023-05-02T02:30:08;17;17;
61592;PMS5003;47485;51.378;-1.342;2023-05-02T02:32:37;15;14;
61592;PMS5003;47485;51.378;-1.342;2023-05-02T02:35:04;12;11;
61592;PMS5003;47485;51.378;-1.342;2023-05-02T02:37:32;15;13;
61592;PMS5003;47485;51.378;-1.342;2023-05-02T02:40:04;15;15;
61592;PMS5003;47485;51.378;-1.342;2023-05-02T02:42:38;14;11;
61592;PMS5003;47485;51.378;-1.342;2023-05-02T02:45:15;14;14;
61592;PMS5003;47485;51.378;-1.342;2023-05-02T02:47:50;15;13;
61592;PMS5003;47485;51.378;-1.342;2023-05-02T02:50:29;18;15;
61592;PMS5003;47485;51.378;-1.342;2023-05-02T02:53:03;12;12;
61592;PMS5003;47485;51.378;-1.342;2023-05-02T02:55:35;16;13;
61592;PMS5003;47485;51.378;-1.342;2023-05-02T02:58:09;12;12;
61592;PMS5003;47485;51.378;-1.342;2023-05-02T03:00:44;12;11;
61592;PMS5003;47485;51.378;-1.342;2023-05-02T03:03:14;12;12;
61592;PMS5003;47485;51.378;-1.342;2023-05-02T03:05:43;13;13;
61592;PMS5003;47485;51.378;-1.342;2023-05-02T03:08:11;12;10;
61592;PMS5003;47485;51.378;-1.342;2023-05-02T03:10:38;11;10;
61592;PMS5003;47485;51.378;-1.342;2023-05-02T03:13:05;12;11;
61592;PMS5003;47485;51.378;-1.342;2023-05-02T03:16:15;15;13;
61592;PMS5003;47485;51.378;-1.342;2023-05-02T03:18:56;13;12;
61592;PMS5003;47485;51.378;-1.342;2023-05-02T03:21:23;15;15;
61592;PMS5003;47485;51.378;-1.342;2023-05-02T03:23:49;11;10;
61592;PMS5003;47485;51.378;-1.342;2023-05-02T03:26:16;18;15;
61592;PMS5003;47485;51.378;-1.342;2023-05-02T03:28:43;14;14;
61592;PMS5003;47485;51.378;-1.342;2023-05-02T03:31:10;16;14;
61592;PMS5003;47485;51.378;-1.342;2023-05-02T03:33:37;16;15;
61592;PMS5003;47485;51.378;-1.342;2023-05-02T03:36:04;14;14;
61592;PMS5003;47485;51.378;-1.342;2023-05-02T03:38:32;22;20;
61592;PMS5003;47485;51.378;-1.342;2023-05-02T03:40:58;23;20;
61592;PMS5003;47485;51.378;-1.342;2023-05-02T03:43:25;20;17;
61592;PMS5003;47485;51.378;-1.342;2023-05-02T03:45:52;20;18;
61592;PMS5003;47485;51.378;-1.342;2023-05-02T03:48:19;24;18;
61592;PMS5003;47485;51.378;-1.342;2023-05-02T03:50:47;25;22;
61592;PMS5003;47485;51.378;-1.342;2023-05-02T03:53:15;31;28;
61592;PMS5003;47485;51.378;-1.342;2023-05-02T03:55:43;32;31;
61592;PMS5003;47485;51.378;-1.342;2023-05-02T03:58:11;30;26;
61592;PMS5003;47485;51.378;-1.342;2023-05-02T04:00:38;25;24;
61592;PMS5003;47485;51.378;-1.342;2023-05-02T04:03:05;31;26;
61592;PMS5003;47485;51.378;-1.342;2023-05-02T04:05:32;35;31;
61592;PMS5003;47485;51.378;-1.342;2023-05-02T04:07:59;33;28;
61592;PMS5003;47485;51.378;-1.342;2023-05-02T04:10:27;35;29;
61592;PMS5003;47485;51.378;-1.342;2023-05-02T04:12:54;29;27;
61592;PMS5003;47485;51.378;-1.342;2023-05-02T04:15:21;33;31;
61592;PMS5003;47485;51.378;-1.342;2023-05-02T04:17:48;29;28;
61592;PMS5003;47485;51.378;-1.342;2023-05-02T04:20:15;32;32;
61592;PMS5003;47485;51.378;-1.342;2023-05-02T04:22:42;36;33;
61592;PMS5003;47485;51.378;-1.342;2023-05-02T04:25:09;32;29;
61592;PMS5003;47485;51.378;-1.342;2023-05-02T04:27:37;35;29;
61592;PMS5003;47485;51.378;-1.342;2023-05-02T04:30:05;31;28;
61592;PMS5003;47485;51.378;-1.342;2023-05-02T04:32:33;29;27;
61592;PMS5003;47485;51.378;-1.342;2023-05-02T04:34:59;27;26;
61592;PMS5003;47485;51.378;-1.342;2023-05-02T04:37:26;28;28;
61592;PMS5003;47485;51.378;-1.342;2023-05-02T04:39:53;26;24;
61592;PMS5003;47485;51.378;-1.342;2023-05-02T04:42:20;24;23;
61592;PMS5003;47485;51.378;-1.342;2023-05-02T04:44:47;24;23;
61592;PMS5003;47485;51.378;-1.342;2023-05-02T04:47:14;27;23;
61592;PMS5003;47485;51.378;-1.342;2023-05-02T04:49:41;31;29;
61592;PMS5003;47485;51.378;-1.342;2023-05-02T04:52:09;30;24;
61592;PMS5003;47485;51.378;-1.342;2023-05-02T04:54:36;30;27;
61592;PMS5003;47485;51.378;-1.342;2023-05-02T04:57:03;34;34;
61592;PMS5003;47485;51.378;-1.342;2023-05-02T04:59:30;33;31;
61592;PMS5003;47485;51.378;-1.342;2023-05-02T05:01:56;24;24;
61592;PMS5003;47485;51.378;-1.342;2023-05-02T05:04:23;29;26;
61592;PMS5003;47485;51.378;-1.342;2023-05-02T05:06:50;26;26;
61592;PMS5003;47485;51.378;-1.342;2023-05-02T05:09:18;31;29;
61592;PMS5003;47485;51.378;-1.342;2023-05-02T05:11:45;26;23;
61592;PMS5003;47485;51.378;-1.342;2023-05-02T05:14:13;31;30;
61592;PMS5003;47485;51.378;-1.342;2023-05-02T05:16:40;32;29;
61592;PMS5003;47485;51.378;-1.342;2023-05-02T05:19:08;27;23;
61592;PMS5003;47485;51.378;-1.342;2023-05-02T05:21:35;29;26;
61592;PMS5003;47485;51.378;-1.342;2023-05-02T05:24:02;23;22;
61592;PMS5003;47485;51.378;-1.342;2023-05-02T05:26:28;23;21;
61592;PMS5003;47485;51.378;-1.342;2023-05-02T05:28:56;19;19;
61592;PMS5003;47485;51.378;-1.342;2023-05-02T05:31:24;22;19;
61592;PMS5003;47485;51.378;-1.342;2023-05-02T05:33:50;24;20;
61592;PMS5003;47485;51.378;-1.342;2023-05-02T05:36:17;27;25;
61592;PMS5003;47485;51.378;-1.342;2023-05-02T05:38:44;25;20;
61592;PMS5003;47485;51.378;-1.342;2023-05-02T05:41:11;23;20;
61592;PMS5003;47485;51.378;-1.342;2023-05-02T05:43:38;19;18;
61592;PMS5003;47485;51.378;-1.342;2023-05-02T05:46:05;19;17;
61592;PMS5003;47485;51.378;-1.342;2023-05-02T05:48:32;24;18;
61592;PMS5003;47485;51.378;-1.342;2023-05-02T05:51:02;19;15;
61592;PMS5003;47485;51.378;-1.342;2023-05-02T05:53:29;15;15;
61592;PMS5003;47485;51.378;-1.342;2023-05-02T05:55:56;18;17;
61592;PMS5003;47485;51.378;-1.342;2023-05-02T05:58:22;17;16;
61592;PMS5003;47485;51.378;-1.342;2023-05-02T06:00:49;16;16;
61592;PMS5003;47485;51.378;-1.342;2023-05-02T06:03:16;16;15;
61592;PMS5003;47485;51.378;-1.342;2023-05-02T06:05:43;19;17;
61592;PMS5003;47485;51.378;-1.342;2023-05-02T06:08:10;22;19;
61592;PMS5003;47485;51.378;-1.342;2023-05-02T06:10:37;14;11;
61592;PMS5003;47485;51.378;-1.342;2023-05-02T06:13:04;16;14;
61592;PMS5003;47485;51.378;-1.342;2023-05-02T06:15:32;18;15;
61592;PMS5003;47485;51.378;-1.342;2023-05-02T06:17:59;17;15;
61592;PMS5003;47485;51.378;-1.342;2023-05-02T06:20:26;17;15;
61592;PMS5003;47485;51.378;-1.342;2023-05-02T06:22:53;14;13;
61592;PMS5003;47485;51.378;-1.342;2023-05-02T06:25:20;14;12;
61592;PMS5003;47485;51.378;-1.342;2023-05-02T06:27:47;18;16;
61592;PMS5003;47485;51.378;-1.342;2023-05-02T06:30:14;14;13;
61592;PMS5003;47485;51.378;-1.342;2023-05-02T06:32:41;17;14;
61592;PMS5003;47485;51.378;-1.342;2023-05-02T06:35:09;12;12;
61592;PMS5003;47485;51.378;-1.342;2023-05-02T06:37:36;15;12;
61592;PMS5003;47485;51.378;-1.342;2023-05-02T06:40:04;13;13;
61592;PMS5003;47485;51.378;-1.342;2023-05-02T06:42:31;17;14;
61592;PMS5003;47485;51.378;-1.342;2023-05-02T06:44:57;19;13;
61592;PMS5003;47485;51.378;-1.342;2023-05-02T06:47:24;14;13;
61592;PMS5003;47485;51.378;-1.342;2023-05-02T06:49:51;18;16;
61592;PMS5003;47485;51.378;-1.342;2023-05-02T06:52:18;15;14;
61592;PMS5003;47485;51.378;-1.342;2023-05-02T06:54:45;11;11;
61592;PMS5003;47485;51.378;-1.342;2023-05-02T06:57:11;13;11;
61592;PMS5003;47485;51.378;-1.342;2023-05-02T06:59:38;13;13;
61592;PMS5003;47485;51.378;-1.342;2023-05-02T07:02:06;15;14;
61592;PMS5003;47485;51.378;-1.342;2023-05-02T07:04:32;14;12;
61592;PMS5003;47485;51.378;-1.342;2023-05-02T07:06:59;15;12;
61592;PMS5003;47485;51.378;-1.342;2023-05-02T07:09:26;14;11;
61592;PMS5003;47485;51.378;-1.342;2023-05-02T07:11:52;13;11;
61592;PMS5003;47485;51.378;-1.342;2023-05-02T07:14:19;15;9;
61592;PMS5003;47485;51.378;-1.342;2023-05-02T07:16:46;12;11;
61592;PMS5003;47485;51.378;-1.342;2023-05-02T07:19:13;10;9;
61592;PMS5003;47485;51.378;-1.342;2023-05-02T07:21:40;13;12;
61592;PMS5003;47485;51.378;-1.342;2023-05-02T07:24:07;9;9;
61592;PMS5003;47485;51.378;-1.342;2023-05-02T07:26:33;15;14;
61592;PMS5003;47485;51.378;-1.342;2023-05-02T07:29:00;11;10;
61592;PMS5003;47485;51.378;-1.342;2023-05-02T07:31:27;9;9;
61592;PMS5003;47485;51.378;-1.342;2023-05-02T07:33:54;13;13;
61592;PMS5003;47485;51.378;-1.342;2023-05-02T07:36:20;9;9;
61592;PMS5003;47485;51.378;-1.342;2023-05-02T07:38:47;12;11;
61592;PMS5003;47485;51.378;-1.342;2023-05-02T07:41:14;12;8;
61592;PMS5003;47485;51.378;-1.342;2023-05-02T07:43:40;11;11;
61592;PMS5003;47485;51.378;-1.342;2023-05-02T07:46:07;9;8;
61592;PMS5003;47485;51.378;-1.342;2023-05-02T07:48:35;12;11;
61592;PMS5003;47485;51.378;-1.342;2023-05-02T07:51:05;13;12;
61592;PMS5003;47485;51.378;-1.342;2023-05-02T07:53:33;13;12;
61592;PMS5003;47485;51.378;-1.342;2023-05-02T07:56:01;14;13;
61592;PMS5003;47485;51.378;-1.342;2023-05-02T07:58:28;12;11;
61592;PMS5003;47485;51.378;-1.342;2023-05-02T08:00:56;16;14;
61592;PMS5003;47485;51.378;-1.342;2023-05-02T08:03:23;17;12;
61592;PMS5003;47485;51.378;-1.342;2023-05-02T08:05:49;15;15;
61592;PMS5003;47485;51.378;-1.342;2023-05-02T08:08:16;13;12;
61592;PMS5003;47485;51.378;-1.342;2023-05-02T08:10:43;14;11;
61592;PMS5003;47485;51.378;-1.342;2023-05-02T08:13:10;16;15;
61592;PMS5003;47485;51.378;-1.342;2023-05-02T08:15:37;12;12;
61592;PMS5003;47485;51.378;-1.342;2023-05-02T08:18:04;12;12;
61592;PMS5003;47485;51.378;-1.342;2023-05-02T08:20:31;16;16;
61592;PMS5003;47485;51.378;-1.342;2023-05-02T08:22:57;14;13;
61592;PMS5003;47485;51.378;-1.342;2023-05-02T08:25:24;16;15;
61592;PMS5003;47485;51.378;-1.342;2023-05-02T08:27:51;12;12;
61592;PMS5003;47485;51.378;-1.342;2023-05-02T08:30:18;14;14;
61592;PMS5003;47485;51.378;-1.342;2023-05-02T08:32:44;14;13;
61592;PMS5003;47485;51.378;-1.342;2023-05-02T08:35:12;16;16;
61592;PMS5003;47485;51.378;-1.342;2023-05-02T08:37:39;15;15;
61592;PMS5003;47485;51.378;-1.342;2023-05-02T08:40:07;19;15;
61592;PMS5003;47485;51.378;-1.342;2023-05-02T08:42:40;15;14;
61592;PMS5003;47485;51.378;-1.342;2023-05-02T08:45:08;20;18;
61592;PMS5003;47485;51.378;-1.342;2023-05-02T08:47:39;12;12;
61592;PMS5003;47485;51.378;-1.342;2023-05-02T08:50:07;13;10;
61592;PMS5003;47485;51.378;-1.342;2023-05-02T08:52:36;16;15;
61592;PMS5003;47485;51.378;-1.342;2023-05-02T08:55:04;14;14;
61592;PMS5003;47485;51.378;-1.342;2023-05-02T08:57:32;17;15;
61592;PMS5003;47485;51.378;-1.342;2023-05-02T09:00:00;17;14;
61592;PMS5003;47485;51.378;-1.342;2023-05-02T09:02:33;21;16;
61592;PMS5003;47485;51.378;-1.342;2023-05-02T09:05:18;16;13;
61592;PMS5003;47485;51.378;-1.342;2023-05-02T09:07:49;16;14;
61592;PMS5003;47485;51.378;-1.342;2023-05-02T09:10:17;13;12;
61592;PMS5003;47485;51.378;-1.342;2023-05-02T09:12:44;18;15;
61592;PMS5003;47485;51.378;-1.342;2023-05-02T09:15:12;16;14;
61592;PMS5003;47485;51.378;-1.342;2023-05-02T09:17:40;19;15;
61592;PMS5003;47485;51.378;-1.342;2023-05-02T09:20:09;22;18;
61592;PMS5003;47485;51.378;-1.342;2023-05-02T09:22:37;20;18;
61592;PMS5003;47485;51.378;-1.342;2023-05-02T09:25:05;17;16;
61592;PMS5003;47485;51.378;-1.342;2023-05-02T09:27:47;20;17;
61592;PMS5003;47485;51.378;-1.342;2023-05-02T09:30:18;16;14;
61592;PMS5003;47485;51.378;-1.342;2023-05-02T09:32:46;17;17;
61592;PMS5003;47485;51.378;-1.342;2023-05-02T09:35:14;17;17;
61592;PMS5003;47485;51.378;-1.342;2023-05-02T09:37:41;22;20;
61592;PMS5003;47485;51.378;-1.342;2023-05-02T09:40:08;18;17;
61592;PMS5003;47485;51.378;-1.342;2023-05-02T09:42:36;20;17;
61592;PMS5003;47485;51.378;-1.342;2023-05-02T09:45:03;16;16;
61592;PMS5003;47485;51.378;-1.342;2023-05-02T09:47:30;18;14;
61592;PMS5003;47485;51.378;-1.342;2023-05-02T09:49:57;16;16;
61592;PMS5003;47485;51.378;-1.342;2023-05-02T09:52:23;20;17;
61592;PMS5003;47485;51.378;-1.342;2023-05-02T09:54:50;19;16;
61592;PMS5003;47485;51.378;-1.342;2023-05-02T09:57:17;14;14;
61592;PMS5003;47485;51.378;-1.342;2023-05-02T09:59:52;18;16;
61592;PMS5003;47485;51.378;-1.342;2023-05-02T10:02:21;18;18;
61592;PMS5003;47485;51.378;-1.342;2023-05-02T10:04:49;19;17;
61592;PMS5003;47485;51.378;-1.342;2023-05-02T10:07:18;21;19;
61592;PMS5003;47485;51.378;-1.342;2023-05-02T10:09:46;16;15;
61592;PMS5003;47485;51.378;-1.342;2023-05-02T10:12:17;21;21;
61592;PMS5003;47485;51.378;-1.342;2023-05-02T10:14:49;15;15;
61592;PMS5003;47485;51.378;-1.342;2023-05-02T10:17:27;16;16;
61592;PMS5003;47485;51.378;-1.342;2023-05-02T10:20:00;20;18;
61592;PMS5003;47485;51.378;-1.342;2023-05-02T10:22:29;23;18;
61592;PMS5003;47485;51.378;-1.342;2023-05-02T10:24:58;25;19;
61592;PMS5003;47485;51.378;-1.342;2023-05-02T10:27:28;22;20;
61592;PMS5003;47485;51.378;-1.342;2023-05-02T10:29:57;24;21;
61592;PMS5003;47485;51.378;-1.342;2023-05-02T10:32:26;21;21;
61592;PMS5003;47485;51.378;-1.342;2023-05-02T10:34:53;19;18;
61592;PMS5003;47485;51.378;-1.342;2023-05-02T10:37:23;18;17;
61592;PMS5003;47485;51.378;-1.342;2023-05-02T10:39:52;19;17;
61592;PMS5003;47485;51.378;-1.342;2023-05-02T10:42:19;19;18;
61592;PMS5003;47485;51.378;-1.342;2023-05-02T10:44:47;18;18;
61592;PMS5003;47485;51.378;-1.342;2023-05-02T10:47:17;23;19;
61592;PMS5003;47485;51.378;-1.342;2023-05-02T10:49:52;19;19;
61592;PMS5003;47485;51.378;-1.342;2023-05-02T10:52:24;20;17;
61592;PMS5003;47485;51.378;-1.342;2023-05-02T10:54:55;19;17;
61592;PMS5003;47485;51.378;-1.342;2023-05-02T10:58:09;16;14;
61592;PMS5003;47485;51.378;-1.342;2023-05-02T11:00:45;21;18;
61592;PMS5003;47485;51.378;-1.342;2023-05-02T11:03:13;18;18;
61592;PMS5003;47485;51.378;-1.342;2023-05-02T11:06:03;22;18;
61592;PMS5003;47485;51.378;-1.342;2023-05-02T11:08:31;21;21;
61592;PMS5003;47485;51.378;-1.342;2023-05-02T11:11:10;16;13;
61592;PMS5003;47485;51.378;-1.342;2023-05-02T11:14:03;16;15;
61592;PMS5003;47485;51.378;-1.342;2023-05-02T11:16:57;20;18;
61592;PMS5003;47485;51.378;-1.342;2023-05-02T11:22:44;21;18;
61592;PMS5003;47485;51.378;-1.342;2023-05-02T11:25:27;21;19;
61592;PMS5003;47485;51.378;-1.342;2023-05-02T11:27:55;21;21;
61592;PMS5003;47485;51.378;-1.342;2023-05-02T11:30:35;14;13;
61592;PMS5003;47485;51.378;-1.342;2023-05-02T11:33:11;16;15;
61592;PMS5003;47485;51.378;-1.342;2023-05-02T11:35:41;19;18;
61592;PMS5003;47485;51.378;-1.342;2023-05-02T11:38:10;16;15;
61592;PMS5003;47485;51.378;-1.342;2023-05-02T11:40:38;19;19;
61592;PMS5003;47485;51.378;-1.342;2023-05-02T11:43:13;13;13;
61592;PMS5003;47485;51.378;-1.342;2023-05-02T11:45:40;21;16;
61592;PMS5003;47485;51.378;-1.342;2023-05-02T11:48:09;18;16;
61592;PMS5003;47485;51.378;-1.342;2023-05-02T11:50:41;18;15;
61592;PMS5003;47485;51.378;-1.342;2023-05-02T11:53:09;18;17;
61592;PMS5003;47485;51.378;-1.342;2023-05-02T11:55:38;19;18;
61592;PMS5003;47485;51.378;-1.342;2023-05-02T11:58:12;16;16;
61592;PMS5003;47485;51.378;-1.342;2023-05-02T12:00:39;17;16;
61592;PMS5003;47485;51.378;-1.342;2023-05-02T12:03:06;20;17;
61592;PMS5003;47485;51.378;-1.342;2023-05-02T12:05:33;18;17;
61592;PMS5003;47485;51.378;-1.342;2023-05-02T12:08:00;19;17;
61592;PMS5003;47485;51.378;-1.342;2023-05-02T12:10:34;19;17;
61592;PMS5003;47485;51.378;-1.342;2023-05-02T12:13:03;16;15;
61592;PMS5003;47485;51.378;-1.342;2023-05-02T12:15:31;25;19;
61592;PMS5003;47485;51.378;-1.342;2023-05-02T12:17:58;19;19;
61592;PMS5003;47485;51.378;-1.342;2023-05-02T12:20:26;14;14;
61592;PMS5003;47485;51.378;-1.342;2023-05-02T12:22:53;16;14;
61592;PMS5003;47485;51.378;-1.342;2023-05-02T12:25:20;17;15;
61592;PMS5003;47485;51.378;-1.342;2023-05-02T12:28:03;14;14;
61592;PMS5003;47485;51.378;-1.342;2023-05-02T12:30:30;15;15;
61592;PMS5003;47485;51.378;-1.342;2023-05-02T12:32:57;17;16;
61592;PMS5003;47485;51.378;-1.342;2023-05-02T12:35:26;16;15;
61592;PMS5003;47485;51.378;-1.342;2023-05-02T12:37:54;17;16;
61592;PMS5003;47485;51.378;-1.342;2023-05-02T12:40:33;16;15;
61592;PMS5003;47485;51.378;-1.342;2023-05-02T12:43:00;15;14;
61592;PMS5003;47485;51.378;-1.342;2023-05-02T12:45:28;18;17;
61592;PMS5003;47485;51.378;-1.342;2023-05-02T12:47:54;18;16;
61592;PMS5003;47485;51.378;-1.342;2023-05-02T12:50:33;14;14;
61592;PMS5003;47485;51.378;-1.342;2023-05-02T12:53:01;17;16;
61592;PMS5003;47485;51.378;-1.342;2023-05-02T12:55:28;16;16;
61592;PMS5003;47485;51.378;-1.342;2023-05-02T12:57:58;20;16;
61592;PMS5003;47485;51.378;-1.342;2023-05-02T13:00:26;13;13;
61592;PMS5003;47485;51.378;-1.342;2023-05-02T13:02:53;16;15;
61592;PMS5003;47485;51.378;-1.342;2023-05-02T13:05:19;17;16;
61592;PMS5003;47485;51.378;-1.342;2023-05-02T13:07:46;15;15;
61592;PMS5003;47485;51.378;-1.342;2023-05-02T13:10:13;15;15;
61592;PMS5003;47485;51.378;-1.342;2023-05-02T13:12:40;20;19;
61592;PMS5003;47485;51.378;-1.342;2023-05-02T13:15:07;22;21;
61592;PMS5003;47485;51.378;-1.342;2023-05-02T13:17:35;16;16;
61592;PMS5003;47485;51.378;-1.342;2023-05-02T13:20:02;17;17;
61592;PMS5003;47485;51.378;-1.342;2023-05-02T13:22:29;16;13;
61592;PMS5003;47485;51.378;-1.342;2023-05-02T13:24:56;15;14;
61592;PMS5003;47485;51.378;-1.342;2023-05-02T13:27:22;17;15;
61592;PMS5003;47485;51.378;-1.342;2023-05-02T13:29:49;16;15;
61592;PMS5003;47485;51.378;-1.342;2023-05-02T13:32:16;16;13;
61592;PMS5003;47485;51.378;-1.342;2023-05-02T13:34:44;14;13;
61592;PMS5003;47485;51.378;-1.342;2023-05-02T13:37:11;16;14;
61592;PMS5003;47485;51.378;-1.342;2023-05-02T13:39:38;13;13;
61592;PMS5003;47485;51.378;-1.342;2023-05-02T13:42:05;17;15;
61592;PMS5003;47485;51.378;-1.342;2023-05-02T13:44:32;19;18;
61592;PMS5003;47485;51.378;-1.342;2023-05-02T13:46:58;16;15;
61592;PMS5003;47485;51.378;-1.342;2023-05-02T13:49:25;13;12;
61592;PMS5003;47485;51.378;-1.342;2023-05-02T13:51:51;12;12;
61592;PMS5003;47485;51.378;-1.342;2023-05-02T13:54:18;16;16;
61592;PMS5003;47485;51.378;-1.342;2023-05-02T13:56:45;18;13;
61592;PMS5003;47485;51.378;-1.342;2023-05-02T13:59:12;16;16;
61592;PMS5003;47485;51.378;-1.342;2023-05-02T14:01:39;15;14;
61592;PMS5003;47485;51.378;-1.342;2023-05-02T14:04:06;17;17;
61592;PMS5003;47485;51.378;-1.342;2023-05-02T14:06:33;14;13;
61592;PMS5003;47485;51.378;-1.342;2023-05-02T14:09:00;14;13;
61592;PMS5003;47485;51.378;-1.342;2023-05-02T14:11:26;16;14;
61592;PMS5003;47485;51.378;-1.342;2023-05-02T14:13:53;19;17;
61592;PMS5003;47485;51.378;-1.342;2023-05-02T14:16:20;16;14;
61592;PMS5003;47485;51.378;-1.342;2023-05-02T14:18:47;14;14;
61592;PMS5003;47485;51.378;-1.342;2023-05-02T14:21:13;12;12;
61592;PMS5003;47485;51.378;-1.342;2023-05-02T14:23:40;13;13;
61592;PMS5003;47485;51.378;-1.342;2023-05-02T14:26:07;12;12;
61592;PMS5003;47485;51.378;-1.342;2023-05-02T14:28:34;13;11;
61592;PMS5003;47485;51.378;-1.342;2023-05-02T14:31:01;14;13;
61592;PMS5003;47485;51.378;-1.342;2023-05-02T14:33:28;14;14;
61592;PMS5003;47485;51.378;-1.342;2023-05-02T14:35:54;10;10;
61592;PMS5003;47485;51.378;-1.342;2023-05-02T14:38:21;10;10;
61592;PMS5003;47485;51.378;-1.342;2023-05-02T14:40:47;12;12;
61592;PMS5003;47485;51.378;-1.342;2023-05-02T14:43:14;11;11;
61592;PMS5003;47485;51.378;-1.342;2023-05-02T14:45:41;15;11;
61592;PMS5003;47485;51.378;-1.342;2023-05-02T14:48:08;15;14;
61592;PMS5003;47485;51.378;-1.342;2023-05-02T14:50:35;14;12;
61592;PMS5003;47485;51.378;-1.342;2023-05-02T14:53:02;11;10;
61592;PMS5003;47485;51.378;-1.342;2023-05-02T14:55:29;10;9;
61592;PMS5003;47485;51.378;-1.342;2023-05-02T14:57:55;15;12;
61592;PMS5003;47485;51.378;-1.342;2023-05-02T15:00:22;13;11;
61592;PMS5003;47485;51.378;-1.342;2023-05-02T15:02:49;13;13;
61592;PMS5003;47485;51.378;-1.342;2023-05-02T15:05:15;9;9;
61592;PMS5003;47485;51.378;-1.342;2023-05-02T15:07:43;14;13;
61592;PMS5003;47485;51.378;-1.342;2023-05-02T15:10:10;14;12;
61592;PMS5003;47485;51.378;-1.342;2023-05-02T15:12:37;11;11;
61592;PMS5003;47485;51.378;-1.342;2023-05-02T15:15:04;13;10;
61592;PMS5003;47485;51.378;-1.342;2023-05-02T15:17:32;13;12;
61592;PMS5003;47485;51.378;-1.342;2023-05-02T15:19:58;9;9;
61592;PMS5003;47485;51.378;-1.342;2023-05-02T15:22:25;11;10;
61592;PMS5003;47485;51.378;-1.342;2023-05-02T15:24:52;13;9;
61592;PMS5003;47485;51.378;-1.342;2023-05-02T15:27:18;12;11;
61592;PMS5003;47485;51.378;-1.342;2023-05-02T15:29:45;9;8;
61592;PMS5003;47485;51.378;-1.342;2023-05-02T15:32:12;9;9;
61592;PMS5003;47485;51.378;-1.342;2023-05-02T15:34:39;7;7;
61592;PMS5003;47485;51.378;-1.342;2023-05-02T15:37:05;10;10;
61592;PMS5003;47485;51.378;-1.342;2023-05-02T15:39:32;11;9;
61592;PMS5003;47485;51.378;-1.342;2023-05-02T15:42:00;12;11;
61592;PMS5003;47485;51.378;-1.342;2023-05-02T15:44:28;11;10;
61592;PMS5003;47485;51.378;-1.342;2023-05-02T15:46:55;10;10;
61592;PMS5003;47485;51.378;-1.342;2023-05-02T15:49:21;12;12;
61592;PMS5003;47485;51.378;-1.342;2023-05-02T15:51:48;11;10;
61592;PMS5003;47485;51.378;-1.342;2023-05-02T15:54:15;7;7;
61592;PMS5003;47485;51.378;-1.342;2023-05-02T15:56:42;8;8;
61592;PMS5003;47485;51.378;-1.342;2023-05-02T15:59:09;16;14;
61592;PMS5003;47485;51.378;-1.342;2023-05-02T16:01:37;9;9;
61592;PMS5003;47485;51.378;-1.342;2023-05-02T16:04:04;9;8;
61592;PMS5003;47485;51.378;-1.342;2023-05-02T16:06:31;10;9;
61592;PMS5003;47485;51.378;-1.342;2023-05-02T16:08:59;13;12;
61592;PMS5003;47485;51.378;-1.342;2023-05-02T16:11:26;11;10;
61592;PMS5003;47485;51.378;-1.342;2023-05-02T16:13:53;9;8;
61592;PMS5003;47485;51.378;-1.342;2023-05-02T16:16:21;11;9;
61592;PMS5003;47485;51.378;-1.342;2023-05-02T16:18:47;9;9;